createdAt,value
2019-01-09T00:01:25.682Z,5.40
2019-01-09T00:03:54.226Z,5.07
2019-01-09T00:06:22.779Z,5.43
2019-01-09T00:08:51.372Z,5.30
2019-01-09T00:11:19.922Z,5.00
2019-01-09T00:13:48.459Z,3.40
2019-01-09T00:16:16.965Z,3.43
2019-01-09T00:18:45.518Z,3.50
2019-01-09T00:21:14.078Z,3.43
2019-01-09T00:23:42.651Z,3.57
2019-01-09T00:26:11.223Z,3.83
2019-01-09T00:28:39.771Z,3.67
2019-01-09T00:31:08.341Z,4.40
2019-01-09T00:33:36.950Z,4.97
2019-01-09T00:36:05.509Z,4.70
2019-01-09T00:38:34.129Z,6.03
2019-01-09T00:41:02.683Z,3.60
2019-01-09T00:43:31.239Z,4.40
2019-01-09T00:45:59.810Z,3.57
2019-01-09T00:48:28.370Z,4.40
2019-01-09T00:50:56.917Z,6.33
2019-01-09T00:53:25.497Z,4.23
2019-01-09T00:55:54.121Z,4.70
2019-01-09T00:58:22.667Z,4.90
2019-01-09T01:00:51.259Z,3.27
2019-01-09T01:03:45.062Z,2.80
2019-01-09T01:06:19.630Z,2.73
2019-01-09T01:09:06.075Z,3.63
2019-01-09T01:11:53.845Z,4.00
2019-01-09T01:14:39.898Z,3.47
2019-01-09T01:17:21.877Z,3.67
2019-01-09T01:20:18.798Z,3.63
2019-01-09T01:23:04.790Z,3.00
2019-01-09T01:26:04.331Z,2.87
2019-01-09T01:28:50.665Z,2.90
2019-01-09T01:31:30.979Z,3.40
2019-01-09T01:34:12.639Z,3.30
2019-01-09T01:37:05.919Z,3.77
2019-01-09T01:40:02.338Z,4.10
2019-01-09T01:43:05.065Z,4.57
2019-01-09T01:45:55.533Z,4.30
2019-01-09T01:48:45.083Z,4.57
2019-01-09T01:51:38.887Z,3.60
2019-01-09T01:54:25.150Z,3.47
2019-01-09T01:57:01.029Z,3.70
2019-01-09T01:59:54.590Z,3.70
2019-01-09T02:02:36.942Z,4.03
2019-01-09T02:05:11.065Z,3.53
2019-01-09T02:07:48.785Z,4.27
2019-01-09T02:10:35.162Z,4.33
2019-01-09T02:13:14.986Z,4.47
2019-01-09T02:16:05.615Z,4.60
2019-01-09T02:18:53.391Z,4.20
2019-01-09T02:21:26.018Z,4.60
2019-01-09T02:24:12.251Z,4.77
2019-01-09T02:26:50.570Z,5.37
2019-01-09T02:29:48.102Z,4.83
2019-01-09T02:32:32.054Z,4.73
2019-01-09T02:35:00.645Z,4.77
2019-01-09T02:37:29.195Z,4.23
2019-01-09T02:39:57.741Z,4.67
2019-01-09T02:42:26.492Z,5.13
2019-01-09T02:44:55.079Z,4.33
2019-01-09T02:47:23.662Z,5.53
2019-01-09T02:49:52.240Z,5.53
2019-01-09T02:52:20.785Z,5.90
2019-01-09T02:54:49.331Z,4.97
2019-01-09T02:57:18.011Z,5.43
2019-01-09T02:59:46.501Z,5.60
2019-01-09T03:02:15.059Z,6.63
2019-01-09T03:04:43.626Z,5.37
2019-01-09T03:07:12.169Z,5.67
2019-01-09T03:09:40.730Z,6.23
2019-01-09T03:12:09.293Z,5.60
2019-01-09T03:14:37.833Z,4.70
2019-01-09T03:17:06.378Z,5.07
2019-01-09T03:19:35.078Z,5.37
2019-01-09T03:22:03.623Z,5.60
2019-01-09T03:24:32.219Z,4.50
2019-01-09T03:27:02.340Z,5.20
2019-01-09T03:29:30.890Z,5.23
2019-01-09T03:31:59.439Z,5.13
2019-01-09T03:34:27.997Z,4.50
2019-01-09T03:36:56.545Z,4.60
2019-01-09T03:39:25.099Z,5.53
2019-01-09T03:41:53.670Z,4.40
2019-01-09T03:44:22.219Z,4.80
2019-01-09T03:46:50.771Z,4.77
2019-01-09T03:49:19.357Z,4.50
2019-01-09T03:51:47.894Z,4.33
2019-01-09T03:54:16.438Z,4.20
2019-01-09T03:56:44.998Z,4.50
2019-01-09T03:59:13.539Z,3.50
2019-01-09T04:01:42.091Z,3.10
2019-01-09T04:04:10.727Z,3.07
2019-01-09T04:06:41.930Z,2.80
2019-01-09T04:09:09.483Z,3.07
2019-01-09T04:11:38.039Z,3.43
2019-01-09T04:14:06.573Z,2.60
2019-01-09T04:16:35.129Z,3.00
2019-01-09T04:19:03.682Z,3.07
2019-01-09T04:21:32.246Z,3.17
2019-01-09T04:24:00.795Z,3.87
2019-01-09T04:26:29.390Z,3.53
2019-01-09T04:28:57.969Z,3.77
2019-01-09T04:31:26.518Z,3.90
2019-01-09T04:33:55.058Z,3.93
2019-01-09T04:36:23.622Z,4.33
2019-01-09T04:38:52.195Z,4.40
2019-01-09T04:41:20.789Z,4.83
2019-01-09T04:43:49.385Z,5.30
2019-01-09T04:46:17.942Z,5.47
2019-01-09T04:48:46.625Z,4.70
2019-01-09T04:51:15.221Z,4.87
2019-01-09T04:53:43.786Z,4.90
2019-01-09T04:56:12.336Z,4.60
2019-01-09T04:58:40.985Z,4.87
2019-01-09T05:01:09.546Z,4.50
2019-01-09T05:03:38.082Z,4.30
2019-01-09T05:06:06.657Z,4.50
2019-01-09T05:08:35.203Z,4.30
2019-01-09T05:11:03.743Z,4.03
2019-01-09T05:13:32.317Z,4.30
2019-01-09T05:16:00.863Z,4.10
2019-01-09T05:18:29.414Z,3.97
2019-01-09T05:20:58.114Z,3.23
2019-01-09T05:23:26.718Z,3.63
2019-01-09T05:25:55.297Z,3.87
2019-01-09T05:28:24.478Z,4.63
2019-01-09T05:30:53.077Z,3.57
2019-01-09T05:33:21.611Z,4.23
2019-01-09T05:35:50.261Z,3.63
2019-01-09T05:38:18.802Z,4.03
2019-01-09T05:40:47.276Z,4.87
2019-01-09T05:43:15.840Z,4.30
2019-01-09T05:45:44.391Z,3.83
2019-01-09T05:48:12.927Z,3.97
2019-01-09T05:50:41.592Z,4.20
2019-01-09T05:53:10.146Z,4.10
2019-01-09T05:55:38.691Z,3.23
2019-01-09T05:58:07.277Z,4.23
2019-01-09T06:00:35.823Z,2.47
2019-01-09T06:03:04.370Z,3.73
2019-01-09T06:05:32.945Z,4.10
2019-01-09T06:08:01.490Z,3.60
2019-01-09T06:10:30.054Z,3.50
2019-01-09T06:12:58.622Z,3.40
2019-01-09T06:15:27.161Z,3.43
2019-01-09T06:17:55.708Z,3.70
2019-01-09T06:20:24.278Z,4.23
2019-01-09T06:22:52.818Z,3.90
2019-01-09T06:25:21.400Z,3.57
2019-01-09T06:27:49.993Z,3.57
2019-01-09T06:30:18.530Z,4.10
2019-01-09T06:32:47.082Z,3.83
2019-01-09T06:35:15.634Z,4.70
2019-01-09T06:37:44.174Z,5.13
2019-01-09T06:40:12.714Z,4.27
2019-01-09T06:42:41.289Z,4.60
2019-01-09T06:45:09.838Z,4.23
2019-01-09T06:47:38.381Z,4.63
2019-01-09T06:50:09.344Z,5.00
2019-01-09T06:52:37.901Z,4.23
2019-01-09T06:55:06.477Z,4.17
2019-01-09T06:57:35.074Z,4.83
2019-01-09T07:00:03.777Z,4.40
2019-01-09T07:02:32.322Z,4.90
2019-01-09T07:05:00.916Z,4.80
2019-01-09T07:07:35.962Z,4.77
2019-01-09T07:10:00.941Z,4.70
2019-01-09T07:12:29.751Z,4.67
2019-01-09T07:14:58.284Z,4.90
2019-01-09T07:17:26.840Z,5.03
2019-01-09T07:19:55.403Z,5.00
2019-01-09T07:22:23.943Z,4.90
2019-01-09T07:24:52.494Z,5.07
2019-01-09T07:27:21.066Z,4.90
2019-01-09T07:29:49.621Z,5.40
2019-01-09T07:32:18.191Z,5.80
2019-01-09T07:34:46.768Z,5.70
2019-01-09T07:37:15.323Z,5.27
2019-01-09T07:39:47.042Z,5.30
2019-01-09T07:42:16.302Z,5.07
2019-01-09T07:44:44.850Z,6.17
2019-01-09T07:47:13.391Z,6.50
2019-01-09T07:49:42.102Z,6.23
2019-01-09T07:52:10.642Z,6.10
2019-01-09T07:54:39.192Z,5.37
2019-01-09T07:57:07.802Z,5.60
2019-01-09T07:59:36.353Z,6.30
2019-01-09T08:02:04.902Z,5.70
2019-01-09T08:04:33.485Z,5.47
2019-01-09T08:07:02.036Z,5.50
2019-01-09T08:09:30.583Z,5.00
2019-01-09T08:11:59.158Z,5.97
2019-01-09T08:14:27.727Z,5.03
2019-01-09T08:16:56.290Z,5.10
2019-01-09T08:19:24.850Z,5.07
2019-01-09T08:21:53.393Z,4.83
2019-01-09T08:24:21.938Z,4.67
2019-01-09T08:26:50.508Z,4.00
2019-01-09T08:29:19.071Z,4.63
2019-01-09T08:31:47.659Z,4.47
2019-01-09T08:34:16.249Z,4.73
2019-01-09T08:36:44.813Z,4.93
2019-01-09T08:39:13.355Z,5.57
2019-01-09T08:41:42.095Z,5.60
2019-01-09T08:44:10.636Z,5.40
2019-01-09T08:46:39.173Z,5.97
2019-01-09T08:49:07.744Z,6.33
2019-01-09T08:51:36.391Z,5.57
2019-01-09T08:54:04.943Z,6.43
2019-01-09T08:56:33.517Z,5.93
2019-01-09T08:59:02.074Z,5.63
2019-01-09T09:01:30.623Z,5.57
2019-01-09T09:03:59.227Z,6.57
2019-01-09T09:06:27.822Z,5.33
2019-01-09T09:08:56.369Z,6.27
2019-01-09T09:11:24.946Z,5.97
2019-01-09T09:13:53.513Z,6.03
2019-01-09T09:16:22.081Z,6.20
2019-01-09T09:18:50.658Z,6.60
2019-01-09T09:21:19.228Z,7.00
2019-01-09T09:23:47.774Z,6.77
2019-01-09T09:26:16.326Z,6.50
2019-01-09T09:28:44.890Z,7.67
2019-01-09T09:31:13.437Z,6.10
2019-01-09T09:33:42.030Z,6.27
2019-01-09T09:36:10.566Z,7.07
2019-01-09T09:38:39.127Z,5.07
2019-01-09T09:41:07.719Z,5.40
2019-01-09T09:43:36.278Z,6.50
2019-01-09T09:46:04.843Z,5.53
2019-01-09T09:48:33.409Z,6.57
2019-01-09T09:51:01.957Z,5.17
2019-01-09T09:53:30.419Z,5.00
2019-01-09T09:55:58.984Z,5.47
2019-01-09T09:58:27.533Z,5.77
2019-01-09T10:00:56.090Z,5.37
2019-01-09T10:03:24.670Z,4.77
2019-01-09T10:05:53.234Z,4.57
2019-01-09T10:08:29.241Z,5.87
2019-01-09T10:10:52.134Z,5.13
2019-01-09T10:13:20.678Z,4.40
2019-01-09T10:15:49.231Z,4.83
2019-01-09T10:18:17.791Z,4.73
2019-01-09T10:20:46.338Z,4.80
2019-01-09T10:23:14.898Z,4.27
2019-01-09T10:25:43.475Z,4.53
2019-01-09T10:28:12.051Z,5.13
2019-01-09T10:30:40.598Z,5.43
2019-01-09T10:33:09.161Z,5.10
2019-01-09T10:35:37.709Z,6.20
2019-01-09T10:38:06.283Z,5.93
2019-01-09T10:40:36.326Z,4.30
2019-01-09T10:43:05.097Z,5.10
2019-01-09T10:45:33.664Z,4.20
2019-01-09T10:48:02.305Z,5.20
2019-01-09T10:50:49.922Z,5.00
2019-01-09T10:53:18.575Z,5.13
2019-01-09T10:55:47.121Z,6.10
2019-01-09T10:58:15.671Z,5.20
2019-01-09T11:00:44.257Z,4.63
2019-01-09T11:03:12.818Z,4.73
2019-01-09T11:05:41.398Z,5.70
2019-01-09T11:08:10.014Z,4.90
2019-01-09T11:10:39.462Z,5.67
2019-01-09T11:13:08.020Z,5.13
2019-01-09T11:15:36.595Z,5.93
2019-01-09T11:18:05.138Z,5.47
2019-01-09T11:20:33.709Z,4.93
2019-01-09T11:23:02.391Z,5.30
2019-01-09T11:25:30.935Z,4.63
2019-01-09T11:27:59.518Z,4.17
2019-01-09T11:30:28.087Z,4.40
2019-01-09T11:32:56.636Z,5.17
2019-01-09T11:35:25.405Z,5.33
2019-01-09T11:37:54.021Z,5.47
2019-01-09T11:40:22.597Z,4.80
2019-01-09T11:42:51.170Z,5.17
2019-01-09T11:45:19.746Z,5.23
2019-01-09T11:47:48.392Z,6.30
2019-01-09T11:50:16.970Z,5.50
2019-01-09T11:52:45.560Z,5.93
2019-01-09T11:55:14.372Z,5.40
2019-01-09T11:57:42.919Z,5.27
2019-01-09T12:00:21.761Z,5.60
2019-01-09T12:02:50.308Z,5.73
2019-01-09T12:05:18.871Z,5.50
2019-01-09T12:07:47.475Z,5.80
2019-01-09T12:10:16.635Z,5.50
2019-01-09T12:12:45.577Z,5.00
2019-01-09T12:15:14.598Z,5.07
2019-01-09T12:17:43.214Z,5.20
2019-01-09T12:20:12.318Z,5.87
2019-01-09T12:22:40.903Z,4.87
2019-01-09T12:25:09.761Z,4.83
2019-01-09T12:27:38.311Z,4.70
2019-01-09T12:30:08.273Z,5.17
2019-01-09T12:32:36.832Z,4.83
2019-01-09T12:35:05.568Z,4.50
2019-01-09T12:37:34.139Z,4.53
2019-01-09T12:40:02.713Z,4.70
2019-01-09T12:42:31.258Z,5.10
2019-01-09T12:44:59.822Z,4.90
2019-01-09T12:47:28.368Z,4.83
2019-01-09T12:49:56.954Z,4.20
2019-01-09T12:52:25.527Z,4.47
2019-01-09T12:54:54.117Z,4.20
2019-01-09T12:57:22.702Z,5.17
2019-01-09T12:59:51.256Z,5.00
2019-01-09T13:02:19.803Z,4.93
2019-01-09T13:04:48.392Z,4.30
2019-01-09T13:07:16.961Z,4.63
2019-01-09T13:09:45.594Z,4.83
2019-01-09T13:12:14.228Z,4.10
2019-01-09T13:14:42.775Z,4.00
2019-01-09T13:17:12.093Z,3.63
2019-01-09T13:19:40.852Z,3.50
2019-01-09T13:22:09.399Z,4.03
2019-01-09T13:24:37.961Z,3.30
2019-01-09T13:27:06.528Z,3.70
2019-01-09T13:29:35.082Z,3.10
2019-01-09T13:32:03.638Z,3.40
2019-01-09T13:34:32.326Z,3.53
2019-01-09T13:37:00.882Z,4.10
2019-01-09T13:39:30.883Z,3.93
2019-01-09T13:41:59.802Z,4.07
2019-01-09T13:44:28.353Z,4.37
2019-01-09T13:46:56.903Z,4.40
2019-01-09T13:49:26.304Z,3.90
2019-01-09T13:51:54.844Z,4.00
2019-01-09T13:54:23.422Z,3.90
2019-01-09T13:56:52.050Z,4.37
2019-01-09T13:59:20.615Z,4.20
2019-01-09T14:01:49.185Z,4.60
2019-01-09T14:04:17.755Z,3.70
2019-01-09T14:06:46.295Z,3.73
2019-01-09T14:09:14.926Z,4.07
2019-01-09T14:11:43.514Z,3.80
2019-01-09T14:14:12.077Z,4.17
2019-01-09T14:16:40.603Z,4.03
2019-01-09T14:19:09.189Z,3.40
2019-01-09T14:21:37.743Z,3.37
2019-01-09T14:24:06.284Z,3.90
2019-01-09T14:26:34.846Z,4.00
2019-01-09T14:29:03.398Z,3.37
2019-01-09T14:31:31.951Z,3.30
2019-01-09T14:34:00.505Z,3.20
2019-01-09T14:36:29.054Z,4.00
2019-01-09T14:38:57.626Z,3.10
2019-01-09T14:41:26.195Z,4.17
2019-01-09T14:43:54.742Z,4.33
2019-01-09T14:46:23.287Z,4.20
2019-01-09T14:48:51.866Z,3.47
2019-01-09T14:51:20.411Z,3.60
2019-01-09T14:53:48.961Z,4.97
2019-01-09T14:56:17.535Z,3.10
2019-01-09T14:58:47.596Z,3.67
2019-01-09T15:01:16.137Z,3.57
2019-01-09T15:03:44.827Z,3.60
2019-01-09T15:06:13.442Z,3.63
2019-01-09T15:08:42.048Z,3.63
2019-01-09T15:11:10.668Z,3.90
2019-01-09T15:13:39.217Z,3.80
2019-01-09T15:16:07.792Z,3.07
2019-01-09T15:18:36.430Z,3.70
2019-01-09T15:21:04.993Z,4.30
2019-01-09T15:23:33.966Z,4.27
2019-01-09T15:26:02.674Z,3.97
2019-01-09T15:28:31.322Z,3.57
2019-01-09T15:30:59.931Z,4.00
2019-01-09T15:33:28.584Z,3.53
2019-01-09T15:35:57.162Z,4.07
2019-01-09T15:38:25.773Z,3.80
2019-01-09T15:40:54.416Z,4.27
2019-01-09T15:43:22.999Z,3.80
2019-01-09T15:45:51.573Z,3.40
2019-01-09T15:48:20.137Z,3.67
2019-01-09T15:50:48.696Z,4.20
2019-01-09T15:53:17.280Z,4.80
2019-01-09T15:55:45.871Z,3.67
2019-01-09T15:58:14.655Z,4.60
2019-01-09T16:00:44.623Z,5.20
2019-01-09T16:03:13.294Z,5.37
2019-01-09T16:05:41.920Z,5.00
2019-01-09T16:08:10.766Z,4.03
2019-01-09T16:10:39.465Z,4.27
2019-01-09T16:13:08.018Z,3.33
2019-01-09T16:15:36.642Z,3.80
2019-01-09T16:18:05.485Z,4.50
2019-01-09T16:20:34.027Z,3.47
2019-01-09T16:23:02.632Z,3.43
2019-01-09T16:25:31.207Z,3.27
2019-01-09T16:27:59.819Z,3.17
2019-01-09T16:30:34.180Z,3.70
2019-01-09T16:33:03.151Z,3.83
2019-01-09T16:35:32.663Z,4.13
2019-01-09T16:38:01.324Z,3.70
2019-01-09T16:40:29.946Z,3.77
2019-01-09T16:42:58.502Z,4.10
2019-01-09T16:45:27.082Z,4.27
2019-01-09T16:47:55.679Z,3.60
2019-01-09T16:50:24.227Z,3.93
2019-01-09T16:52:52.801Z,3.50
2019-01-09T16:55:21.366Z,3.73
2019-01-09T16:57:49.913Z,4.00
2019-01-09T17:00:22.637Z,3.60
2019-01-09T17:02:51.201Z,4.37
2019-01-09T17:05:19.846Z,3.23
2019-01-09T17:07:48.477Z,3.97
2019-01-09T17:10:17.106Z,4.80
2019-01-09T17:12:45.783Z,4.30
2019-01-09T17:15:14.663Z,3.93
2019-01-09T17:17:43.222Z,3.90
2019-01-09T17:20:13.222Z,4.63
2019-01-09T17:22:41.844Z,3.40
2019-01-09T17:25:10.486Z,3.87
2019-01-09T17:27:39.071Z,3.97
2019-01-09T17:30:09.916Z,3.50
2019-01-09T17:32:38.522Z,3.63
2019-01-09T17:35:07.219Z,3.67
2019-01-09T17:37:35.866Z,3.90
2019-01-09T17:40:05.451Z,4.30
2019-01-09T17:42:34.029Z,3.57
2019-01-09T17:45:02.870Z,3.97
2019-01-09T17:47:31.851Z,4.90
2019-01-09T17:50:00.399Z,5.07
2019-01-09T17:52:28.989Z,4.80
2019-01-09T17:54:57.614Z,4.47
2019-01-09T17:57:26.475Z,4.30
2019-01-09T17:59:55.066Z,4.97
2019-01-09T18:02:23.724Z,4.63
2019-01-09T18:04:52.346Z,5.10
2019-01-09T18:07:21.001Z,4.70
2019-01-09T18:09:49.580Z,4.67
2019-01-09T18:12:18.135Z,4.00
2019-01-09T18:14:46.871Z,4.43
2019-01-09T18:17:15.437Z,4.83
2019-01-09T18:19:43.999Z,5.30
2019-01-09T18:22:12.643Z,4.87
2019-01-09T18:24:41.287Z,3.97
2019-01-09T18:27:09.930Z,4.83
2019-01-09T18:29:38.634Z,4.33
2019-01-09T18:32:15.431Z,4.73
2019-01-09T18:34:47.238Z,3.80
2019-01-09T18:37:20.832Z,4.70
2019-01-09T18:40:08.692Z,4.93
2019-01-09T18:42:48.314Z,3.80
2019-01-09T18:45:29.653Z,4.33
2019-01-09T18:48:08.726Z,4.37
2019-01-09T18:51:02.152Z,4.63
2019-01-09T18:53:35.789Z,4.40
2019-01-09T18:56:04.645Z,5.00
2019-01-09T18:58:33.223Z,4.83
2019-01-09T19:01:01.851Z,4.13
2019-01-09T19:03:30.546Z,5.13
2019-01-09T19:05:59.279Z,4.70
2019-01-09T19:08:27.929Z,4.90
2019-01-09T19:10:56.571Z,4.63
2019-01-09T19:13:25.135Z,4.90
2019-01-09T19:15:53.686Z,3.90
2019-01-09T19:18:22.530Z,4.50
2019-01-09T19:20:51.113Z,4.17
2019-01-09T19:23:19.663Z,4.27
2019-01-09T19:25:48.228Z,4.80
2019-01-09T19:28:16.791Z,4.40
2019-01-09T19:30:45.787Z,4.10
2019-01-09T19:33:14.327Z,4.13
2019-01-09T19:35:44.691Z,5.17
2019-01-09T19:38:13.345Z,4.10
2019-01-09T19:40:41.894Z,4.27
2019-01-09T19:43:10.459Z,4.20
2019-01-09T19:45:39.094Z,4.73
2019-01-09T19:48:08.582Z,4.10
2019-01-09T19:50:42.517Z,4.00
2019-01-09T19:53:07.575Z,3.80
2019-01-09T19:55:36.141Z,4.33
2019-01-09T19:58:04.735Z,4.13
2019-01-09T20:00:33.335Z,4.50
2019-01-09T20:03:01.916Z,3.53
2019-01-09T20:05:30.520Z,4.53
2019-01-09T20:07:59.141Z,3.93
2019-01-09T20:10:27.873Z,3.30
2019-01-09T20:12:56.546Z,3.43
2019-01-09T20:15:25.189Z,3.80
2019-01-09T20:17:53.826Z,4.23
2019-01-09T20:20:22.426Z,3.80
2019-01-09T20:22:51.406Z,3.50
2019-01-09T20:25:20.000Z,3.90
2019-01-09T20:27:48.556Z,3.60
2019-01-09T20:30:19.557Z,4.27
2019-01-09T20:32:48.215Z,4.10
2019-01-09T20:35:16.779Z,3.30
2019-01-09T20:37:45.377Z,3.70
2019-01-09T20:40:14.074Z,3.60
2019-01-09T20:42:42.635Z,4.00
2019-01-09T20:45:11.557Z,3.70
2019-01-09T20:47:40.117Z,3.47
2019-01-09T20:50:10.461Z,4.00
2019-01-09T20:52:39.049Z,3.90
2019-01-09T20:55:07.806Z,3.60
2019-01-09T20:57:36.531Z,4.20
2019-01-09T21:00:06.626Z,3.87
2019-01-09T21:02:35.337Z,4.00
2019-01-09T21:05:04.680Z,3.73
2019-01-09T21:07:33.382Z,3.87
2019-01-09T21:10:02.046Z,4.10
2019-01-09T21:12:30.613Z,3.77
2019-01-09T21:14:59.266Z,3.77
2019-01-09T21:17:27.992Z,3.80
2019-01-09T21:19:56.714Z,3.93
2019-01-09T21:22:25.263Z,3.60
2019-01-09T21:24:53.842Z,3.53
2019-01-09T21:27:22.406Z,4.17
2019-01-09T21:29:51.019Z,3.87
2019-01-09T21:32:21.047Z,3.50
2019-01-09T21:34:49.579Z,3.87
2019-01-09T21:37:18.122Z,3.93
2019-01-09T21:39:46.736Z,3.43
2019-01-09T21:42:15.290Z,3.80
2019-01-09T21:44:43.834Z,4.00
2019-01-09T21:47:12.407Z,3.70
2019-01-09T21:49:40.967Z,3.90
2019-01-09T21:52:09.522Z,3.73
2019-01-09T21:54:38.103Z,3.80
2019-01-09T21:57:06.690Z,4.63
2019-01-09T21:59:35.252Z,4.30
2019-01-09T22:02:03.818Z,4.00
2019-01-09T22:04:32.431Z,4.23
2019-01-09T22:07:00.991Z,3.67
2019-01-09T22:09:29.578Z,4.63
2019-01-09T22:12:02.535Z,3.90
2019-01-09T22:14:28.448Z,4.67
2019-01-09T22:16:57.029Z,3.33
2019-01-09T22:19:25.593Z,4.27
2019-01-09T22:21:54.143Z,4.17
2019-01-09T22:24:22.758Z,3.97
2019-01-09T22:26:51.323Z,4.17
2019-01-09T22:29:19.871Z,4.23
2019-01-09T22:31:48.444Z,3.83
2019-01-09T22:34:16.999Z,4.00
2019-01-09T22:36:45.572Z,3.80
2019-01-09T22:39:14.159Z,4.27
2019-01-09T22:41:42.706Z,4.17
2019-01-09T22:44:11.288Z,3.70
2019-01-09T22:46:39.861Z,3.80
2019-01-09T22:49:10.315Z,4.50
2019-01-09T22:51:38.676Z,3.87
2019-01-09T22:54:07.272Z,3.10
2019-01-09T22:56:35.890Z,4.50
2019-01-09T22:59:04.443Z,4.90
2019-01-09T23:01:33.114Z,4.60
2019-01-09T23:04:01.687Z,4.40
2019-01-09T23:06:30.258Z,4.17
2019-01-09T23:08:58.841Z,4.47
2019-01-09T23:11:27.400Z,5.53
2019-01-09T23:13:55.956Z,5.07
2019-01-09T23:16:24.583Z,4.50
2019-01-09T23:18:53.170Z,4.97
2019-01-09T23:21:21.775Z,4.03
2019-01-09T23:23:50.330Z,4.03
2019-01-09T23:26:19.001Z,4.37
2019-01-09T23:28:47.642Z,4.97
2019-01-09T23:31:16.194Z,4.20
2019-01-09T23:33:44.777Z,4.00
2019-01-09T23:36:13.346Z,4.43
2019-01-09T23:38:41.919Z,5.10
2019-01-09T23:41:10.462Z,7.47
2019-01-09T23:43:39.036Z,4.47
2019-01-09T23:46:07.633Z,4.90
2019-01-09T23:48:36.246Z,4.47
2019-01-09T23:51:04.818Z,4.37
2019-01-09T23:53:33.370Z,5.20
2019-01-09T23:56:01.914Z,4.57
2019-01-09T23:58:30.489Z,5.33
